Time;durP1;ratioP1;P1;durP2;ratioP2;P2;SDS_P1;SDS_P2;PMS_P1;PMS_P2;Temp;Humidity;BMP_temperature;BMP_pressure;BME280_temperature;BME280_humidity;BME280_pressure;Samples;Min_cycle;Max_cycle;Signal;HPM_P1;HPM_P2
2023/07/18 00:00:35;;;;;;;4.35;2.45;;;;;;;17.48;57.42;101583.13;15491720;28;20379;-50
2023/07/18 00:08:10;;;;;;;4.68;2.00;;;;;;;17.00;59.12;101584.16;15532691;28;20054;-49
2023/07/18 00:15:50;;;;;;;5.32;2.53;;;;;;;16.67;60.00;101583.78;15519955;28;20072;-53
2023/07/18 00:23:24;;;;;;;6.32;2.60;;;;;;;16.43;60.20;101585.56;15539513;28;20130;-54
2023/07/18 00:31:01;;;;;;;5.75;2.80;;;;;;;16.53;59.28;101593.97;15523568;28;20049;-52
2023/07/18 00:38:36;;;;;;;4.88;2.38;;;;;;;16.48;60.03;101591.94;15492127;28;20129;-49
2023/07/18 00:46:10;;;;;;;4.30;2.58;;;;;;;16.20;61.27;101603.34;15505324;28;20085;-53
2023/07/18 00:53:45;;;;;;;7.78;3.10;;;;;;;15.53;64.28;101592.34;15482312;28;20046;-50
2023/07/18 01:01:18;;;;;;;5.30;3.20;;;;;;;15.44;65.29;101587.44;15523707;28;20142;-55
2023/07/18 01:08:53;;;;;;;6.00;3.05;;;;;;;15.28;65.71;101581.53;15530548;28;20049;-55
2023/07/18 01:16:26;;;;;;;5.68;2.90;;;;;;;15.45;65.20;101586.41;15509036;28;20077;-49
2023/07/18 01:24:00;;;;;;;4.97;3.20;;;;;;;15.58;64.76;101580.88;15493907;28;20042;-50
2023/07/18 01:31:33;;;;;;;5.65;3.25;;;;;;;15.18;66.15;101588.47;15500799;28;20086;-52
2023/07/18 01:39:11;;;;;;;8.20;3.47;;;;;;;15.35;65.74;101594.19;15500733;28;20421;-53
2023/07/18 01:46:44;;;;;;;5.32;3.10;;;;;;;15.19;66.15;101600.94;15487704;28;20488;-50
2023/07/18 01:54:18;;;;;;;6.23;3.23;;;;;;;15.20;64.77;101587.22;15514765;28;20041;-55
2023/07/18 02:01:52;;;;;;;6.25;3.50;;;;;;;14.65;65.68;101596.94;15497306;28;20323;-49
2023/07/18 02:09:26;;;;;;;6.95;3.63;;;;;;;14.16;67.53;101610.00;15518497;28;20499;-48
2023/07/18 02:16:59;;;;;;;8.13;4.05;;;;;;;14.36;66.75;101606.38;15541175;28;20060;-51
2023/07/18 02:24:35;;;;;;;7.88;3.85;;;;;;;14.66;65.87;101612.13;15501542;28;20368;-48
2023/07/18 02:32:10;;;;;;;7.40;4.10;;;;;;;14.59;66.00;101631.03;15517203;28;20054;-49
2023/07/18 02:39:46;;;;;;;7.78;4.10;;;;;;;14.25;67.44;101635.72;15513907;28;20073;-51
2023/07/18 02:47:18;;;;;;;8.60;4.55;;;;;;;14.29;67.81;101628.03;15482489;28;20045;-50
2023/07/18 02:54:53;;;;;;;9.10;4.73;;;;;;;14.28;67.51;101634.47;15520694;28;20137;-50
2023/07/18 03:02:28;;;;;;;8.45;4.65;;;;;;;14.22;67.83;101641.56;15491451;28;20301;-50
2023/07/18 03:10:03;;;;;;;6.80;4.95;;;;;;;14.51;66.94;101639.41;15534402;28;20100;-55
2023/07/18 03:17:36;;;;;;;9.55;4.63;;;;;;;14.48;66.99;101653.34;15475931;28;20178;-54
2023/07/18 03:25:12;;;;;;;8.23;5.00;;;;;;;14.50;66.57;101659.34;15499062;28;20464;-52
2023/07/18 03:32:45;;;;;;;8.82;4.80;;;;;;;14.40;66.47;101658.94;15534636;28;20560;-52
2023/07/18 03:40:20;;;;;;;9.25;5.25;;;;;;;14.15;68.02;101650.72;15499691;28;20464;-54
2023/07/18 03:47:53;;;;;;;8.48;5.68;;;;;;;14.23;67.65;101651.31;15522246;28;20065;-55
2023/07/18 03:55:29;;;;;;;9.85;5.15;;;;;;;14.30;67.90;101657.50;15537146;28;20050;-53
2023/07/18 04:03:02;;;;;;;9.93;5.93;;;;;;;14.16;68.37;101652.38;15518071;28;20050;-55
2023/07/18 04:10:37;;;;;;;11.27;5.60;;;;;;;13.51;71.89;101658.44;15528768;28;20042;-52
2023/07/18 04:18:09;;;;;;;8.75;5.50;;;;;;;13.36;72.56;101659.69;15526906;28;20444;-54
2023/07/18 04:25:59;;;;;;;11.02;5.65;;;;;;;13.94;70.97;101660.72;15502709;28;20125;-54
2023/07/18 04:33:34;;;;;;;11.80;5.97;;;;;;;13.82;71.01;101661.56;15514872;28;20057;-52
2023/07/18 04:41:11;;;;;;;13.25;6.18;;;;;;;13.98;71.11;101664.66;15520294;28;20050;-53
2023/07/18 04:48:45;;;;;;;9.63;5.53;;;;;;;14.35;70.24;101651.47;15493702;28;20050;-52
2023/07/18 04:56:19;;;;;;;10.07;5.35;;;;;;;14.70;69.29;101664.69;15549439;28;20097;-55
2023/07/18 05:03:52;;;;;;;12.07;5.25;;;;;;;14.54;70.11;101676.78;15510478;28;20093;-53
2023/07/18 05:11:29;;;;;;;11.77;5.60;;;;;;;15.10;68.85;101665.28;15515259;28;20161;-52
2023/07/18 05:19:02;;;;;;;9.40;5.18;;;;;;;15.09;68.84;101666.34;15487437;28;20050;-53
2023/07/18 05:26:36;;;;;;;9.00;4.72;;;;;;;15.25;68.61;101679.34;15487652;28;20078;-54
2023/07/18 05:34:09;;;;;;;10.68;4.53;;;;;;;15.62;67.48;101665.97;15484748;28;20061;-54
2023/07/18 05:41:43;;;;;;;;;;;;;;;16.13;66.16;101656.75;15516279;28;20052;-56
2023/07/18 05:49:18;;;;;;;8.63;4.22;;;;;;;16.62;64.92;101668.50;15512671;28;19929;-56
2023/07/18 05:56:53;;;;;;;8.65;4.53;;;;;;;16.82;64.39;101663.66;15548943;28;20081;-51
2023/07/18 06:04:26;;;;;;;7.68;3.92;;;;;;;17.58;61.79;101667.56;15557838;28;20048;-50
2023/07/18 06:12:01;;;;;;;12.77;4.40;;;;;;;17.09;64.30;101661.41;15540203;28;20115;-53
2023/07/18 06:19:34;;;;;;;9.77;4.40;;;;;;;17.78;62.79;101664.53;15479257;28;20387;-53
2023/07/18 06:27:09;;;;;;;9.60;4.20;;;;;;;18.59;59.16;101675.53;15494799;28;20042;-55
2023/07/18 06:34:43;;;;;;;7.80;4.00;;;;;;;18.44;59.85;101667.06;15495603;28;20376;-49
2023/07/18 06:42:18;;;;;;;10.90;3.95;;;;;;;19.08;58.53;101660.47;15555522;28;20134;-56
2023/07/18 06:49:50;;;;;;;8.85;3.75;;;;;;;19.30;58.96;101676.91;15555685;28;20148;-54
2023/07/18 06:57:26;;;;;;;12.00;4.15;;;;;;;19.34;57.61;101678.06;15521906;28;20050;-50
2023/07/18 07:04:58;;;;;;;9.20;4.03;;;;;;;19.90;56.52;101675.47;15553091;28;20269;-49
2023/07/18 07:12:33;;;;;;;;;;;;;;;19.36;56.41;101678.69;15532043;28;20054;-53
2023/07/18 07:20:09;;;;;;;6.60;3.58;;;;;;;20.45;53.29;101665.59;15474033;28;19925;-52
2023/07/18 07:27:44;;;;;;;8.48;3.53;;;;;;;20.76;53.43;101666.81;15474570;28;20058;-52
2023/07/18 07:35:18;;;;;;;7.55;3.58;;;;;;;20.72;52.96;101665.69;15492474;28;20046;-49
2023/07/18 07:42:53;;;;;;;7.95;3.17;;;;;;;21.21;50.75;101665.63;15491264;28;20050;-54
2023/07/18 07:50:25;;;;;;;8.15;2.92;;;;;;;21.42;49.98;101669.41;15473736;28;20046;-53
2023/07/18 07:58:00;;;;;;;10.10;3.13;;;;;;;21.42;50.92;101659.31;15490387;28;20496;-56
2023/07/18 08:05:33;;;;;;;5.75;2.70;;;;;;;21.53;48.85;101660.22;15472877;28;20520;-55
2023/07/18 08:13:08;;;;;;;6.68;2.60;;;;;;;21.23;49.92;101655.28;15517043;28;20050;-50
2023/07/18 08:20:41;;;;;;;8.35;2.97;;;;;;;21.95;48.02;101645.75;15532004;28;20045;-51
2023/07/18 08:28:16;;;;;;;5.40;2.38;;;;;;;21.99;45.80;101635.94;15550694;28;20525;-58
2023/07/18 08:35:50;;;;;;;7.45;2.30;;;;;;;22.75;45.32;101633.53;15549035;28;20415;-56
2023/07/18 08:43:25;;;;;;;7.00;2.50;;;;;;;23.19;43.54;101619.41;15548709;28;20116;-57
2023/07/18 08:51:00;;;;;;;6.47;2.40;;;;;;;23.49;42.93;101612.25;15547815;28;20160;-56
2023/07/18 08:58:36;;;;;;;5.78;2.20;;;;;;;23.25;42.67;101610.09;15547522;28;20052;-53
2023/07/18 09:06:17;;;;;;;5.57;1.90;;;;;;;23.29;41.62;101602.16;15547698;28;20192;-57
2023/07/18 09:13:52;;;;;;;9.85;2.75;;;;;;;23.74;43.08;101592.25;15546983;28;20140;-54
2023/07/18 09:21:27;;;;;;;6.80;2.10;;;;;;;23.95;40.14;101577.38;15547452;28;20073;-52
2023/07/18 09:29:01;;;;;;;3.92;1.70;;;;;;;23.19;39.91;101585.72;15545242;28;20038;-52
2023/07/18 09:36:34;;;;;;;4.88;1.83;;;;;;;23.11;39.93;101579.69;15557870;28;20057;-57
2023/07/18 09:44:10;;;;;;;5.25;1.98;;;;;;;24.07;40.97;101569.66;15541290;28;20188;-55
2023/07/18 09:51:53;;;;;;;3.10;1.60;;;;;;;23.37;37.64;101572.28;15540486;28;20046;-55
2023/07/18 09:59:28;;;;;;;3.35;1.30;;;;;;;23.95;38.17;101562.84;15541003;28;20034;-56
2023/07/18 10:07:04;;;;;;;3.20;1.35;;;;;;;24.14;36.31;101550.16;15541177;28;20058;-56
2023/07/18 10:14:56;;;;;;;4.85;1.83;;;;;;;25.31;37.25;101541.13;15518595;28;20456;-55
2023/07/18 10:22:30;;;;;;;5.68;1.92;;;;;;;25.14;34.13;101538.00;15496522;28;20050;-58
2023/07/18 10:30:06;;;;;;;3.63;1.70;;;;;;;25.76;37.07;101528.03;15496493;28;20046;-57
2023/07/18 10:37:43;;;;;;;4.45;1.60;;;;;;;23.73;36.91;101530.28;15495622;28;20045;-52
2023/07/18 10:45:17;;;;;;;2.40;1.33;;;;;;;24.51;37.00;101513.19;15494270;28;20043;-57
2023/07/18 10:52:50;;;;;;;4.68;1.80;;;;;;;23.76;36.16;101505.88;15494693;28;20136;-57
2023/07/18 11:00:26;;;;;;;5.53;1.73;;;;;;;26.21;36.57;101481.78;15477661;28;20048;-58
2023/07/18 11:07:59;;;;;;;4.50;1.63;;;;;;;25.64;34.40;101465.16;15494423;28;20125;-51
2023/07/18 11:15:34;;;;;;;3.28;1.13;;;;;;;26.66;30.98;101449.97;15539760;28;20073;-49
2023/07/18 11:23:08;;;;;;;3.47;1.50;;;;;;;25.48;32.21;101454.66;15552290;28;20435;-49
2023/07/18 11:30:44;;;;;;;3.72;1.40;;;;;;;23.95;34.87;101439.44;15551740;28;20057;-53
2023/07/18 11:38:17;;;;;;;6.88;1.40;;;;;;;25.19;33.94;101433.53;15552265;28;20487;-49
2023/07/18 11:45:57;;;;;;;5.00;1.33;;;;;;;26.33;31.49;101420.75;15552550;28;20455;-47
2023/07/18 11:53:32;;;;;;;2.00;1.27;;;;;;;27.77;31.03;101417.84;15551129;28;20045;-52
2023/07/18 12:01:06;;;;;;;1.85;1.17;;;;;;;27.60;28.63;101417.63;15551982;28;20462;-49
2023/07/18 12:08:39;;;;;;;2.10;1.10;;;;;;;27.64;30.46;101405.66;15549389;28;20503;-46
2023/07/18 12:16:13;;;;;;;2.03;1.10;;;;;;;27.77;31.12;101409.56;15497423;28;20105;-47
2023/07/18 12:23:46;;;;;;;2.83;1.35;;;;;;;27.78;29.96;101393.81;15489100;28;20046;-51
2023/07/18 12:31:20;;;;;;;2.13;1.15;;;;;;;27.45;28.59;101394.75;15490057;28;20133;-48
2023/07/18 12:38:53;;;;;;;3.67;1.33;;;;;;;27.12;29.63;101390.50;15506448;28;20053;-53
2023/07/18 12:46:27;;;;;;;2.53;1.17;;;;;;;26.96;28.16;101385.25;15508988;28;20128;-49
2023/07/18 12:54:00;;;;;;;2.95;1.20;;;;;;;27.37;29.20;101378.97;15507684;28;20105;-49
2023/07/18 13:01:36;;;;;;;3.25;0.95;;;;;;;28.24;27.21;101371.47;15499139;28;20038;-49
2023/07/18 13:09:09;;;;;;;3.90;1.17;;;;;;;27.94;27.97;101367.53;15478561;28;20416;-48
2023/07/18 13:16:43;;;;;;;2.67;1.25;;;;;;;28.70;28.39;101351.78;15529490;28;20109;-47
2023/07/18 13:24:16;;;;;;;3.13;1.45;;;;;;;27.86;28.90;101352.50;15453055;28;20146;-48
2023/07/18 13:31:50;;;;;;;2.38;1.00;;;;;;;26.81;29.15;101357.16;15492199;28;20048;-44
2023/07/18 13:39:23;;;;;;;4.20;1.05;;;;;;;25.95;30.39;101341.81;15547501;28;20530;-44
2023/07/18 13:46:57;;;;;;;1.88;1.00;;;;;;;26.56;29.21;101337.25;15509613;28;20460;-47
2023/07/18 13:54:30;;;;;;;4.95;1.00;;;;;;;25.49;31.36;101325.16;15485440;28;20076;-51
2023/07/18 14:02:06;;;;;;;3.47;0.98;;;;;;;26.73;30.90;101302.81;15519631;28;20060;-43
2023/07/18 14:09:39;;;;;;;5.63;1.25;;;;;;;27.16;31.79;101298.63;15545631;28;20069;-49
2023/07/18 14:17:13;;;;;;;2.35;1.00;;;;;;;27.69;29.16;101272.34;15527926;28;20046;-47
2023/07/18 14:24:47;;;;;;;4.93;0.90;;;;;;;26.98;30.50;101273.91;15556946;28;20212;-46
2023/07/18 14:32:22;;;;;;;7.13;1.30;;;;;;;26.33;30.51;101261.13;15494850;28;20080;-50
2023/07/18 14:39:59;;;;;;;3.15;1.05;;;;;;;26.05;29.69;101246.50;15520785;28;20042;-49
2023/07/18 14:47:34;;;;;;;3.53;1.10;;;;;;;26.05;31.39;101243.75;15509070;28;20696;-50
2023/07/18 14:55:07;;;;;;;4.20;1.10;;;;;;;25.57;31.83;101236.53;15493972;28;20057;-46
2023/07/18 15:02:42;;;;;;;4.90;1.60;;;;;;;26.08;31.77;101227.44;15553284;28;20092;-47
2023/07/18 15:10:14;;;;;;;5.15;1.17;;;;;;;26.33;30.82;101211.56;15533311;28;20513;-49
2023/07/18 15:17:51;;;;;;;3.38;1.20;;;;;;;26.70;31.75;101210.59;15480953;28;20045;-53
2023/07/18 15:25:26;;;;;;;1.70;1.00;;;;;;;26.45;30.52;101201.72;15534711;28;20462;-49
2023/07/18 15:33:05;;;;;;;2.90;1.10;;;;;;;25.98;32.77;101207.56;15519596;28;20054;-48
2023/07/18 15:40:39;;;;;;;2.78;1.10;;;;;;;25.73;31.59;101206.03;15503258;28;20061;-48
2023/07/18 15:48:14;;;;;;;4.63;1.30;;;;;;;26.14;29.83;101209.72;15478902;28;20068;-45
2023/07/18 15:55:47;;;;;;;2.83;1.08;;;;;;;25.57;31.05;101197.22;15492903;28;20077;-46
2023/07/18 16:03:22;;;;;;;3.30;1.20;;;;;;;25.93;31.42;101203.78;15507095;28;20053;-47
2023/07/18 16:10:56;;;;;;;3.70;1.10;;;;;;;26.40;30.11;101193.53;15542256;28;20463;-47
2023/07/18 16:18:30;;;;;;;4.25;1.13;;;;;;;26.15;30.94;101188.53;15472747;28;20086;-46
2023/07/18 16:26:03;;;;;;;2.78;1.20;;;;;;;26.09;32.03;101165.78;15471556;28;20109;-45
2023/07/18 16:33:37;;;;;;;5.68;1.30;;;;;;;25.34;30.59;101172.28;15530977;28;20084;-47
2023/07/18 16:41:10;;;;;;;2.58;0.82;;;;;;;25.22;31.27;101171.09;15549089;28;20141;-47
2023/07/18 16:48:46;;;;;;;2.65;1.33;;;;;;;25.45;31.52;101154.50;15531655;28;20053;-48
2023/07/18 16:56:19;;;;;;;4.22;1.10;;;;;;;25.02;30.94;101144.75;15531254;28;20184;-47
2023/07/18 17:03:57;;;;;;;2.92;1.08;;;;;;;25.45;32.42;101140.75;15487721;28;20445;-49
2023/07/18 17:11:30;;;;;;;2.90;1.10;;;;;;;25.90;32.16;101112.81;15478764;28;20050;-53
2023/07/18 17:19:04;;;;;;;2.67;1.15;;;;;;;25.22;31.77;101111.47;15469904;28;20076;-53
2023/07/18 17:26:37;;;;;;;2.42;1.02;;;;;;;25.10;32.94;101100.16;15488031;28;20128;-54
2023/07/18 17:34:11;;;;;;;4.28;1.10;;;;;;;25.39;31.65;101084.25;15524732;28;20145;-54
2023/07/18 17:41:44;;;;;;;2.70;1.30;;;;;;;25.28;33.90;101076.50;15529574;28;20156;-55
2023/07/18 17:49:19;;;;;;;3.08;1.50;;;;;;;25.34;33.24;101072.56;15498593;28;20415;-56
2023/07/18 17:56:52;;;;;;;2.83;0.80;;;;;;;24.93;34.07;101065.75;15549529;28;20455;-51
2023/07/18 18:04:26;;;;;;;3.88;1.17;;;;;;;24.52;33.13;101062.78;15498180;28;20422;-50
2023/07/18 18:11:59;;;;;;;2.15;1.20;;;;;;;24.23;33.41;101056.59;15496635;28;20054;-53
2023/07/18 18:19:34;;;;;;;2.92;1.00;;;;;;;24.02;33.76;101047.81;15532960;28;20050;-54
2023/07/18 18:27:08;;;;;;;2.60;1.17;;;;;;;24.59;34.37;101035.81;15547670;28;20112;-54
2023/07/18 18:34:42;;;;;;;2.42;1.10;;;;;;;24.49;34.84;101040.63;15539008;28;20077;-56
2023/07/18 18:42:15;;;;;;;3.33;1.00;;;;;;;24.14;36.53;101034.47;15544321;28;20503;-52
2023/07/18 18:49:49;;;;;;;2.40;1.02;;;;;;;23.66;37.51;101038.06;15544505;28;20483;-51
2023/07/18 18:57:22;;;;;;;2.67;1.20;;;;;;;23.60;38.03;101036.47;15554944;28;20430;-51
2023/07/18 19:04:56;;;;;;;8.27;2.50;;;;;;;23.39;38.98;101038.56;15546299;28;20088;-50
2023/07/18 19:12:29;;;;;;;4.13;1.80;;;;;;;22.81;41.04;101034.94;15527884;28;20442;-51
2023/07/18 19:20:03;;;;;;;3.50;1.23;;;;;;;22.86;40.34;101038.47;15536164;28;20056;-49
2023/07/18 19:27:36;;;;;;;4.75;1.17;;;;;;;22.52;40.45;101049.38;15547864;28;20057;-52
2023/07/18 19:35:10;;;;;;;4.05;1.13;;;;;;;22.06;42.08;101056.94;15535457;28;20056;-51
2023/07/18 19:42:44;;;;;;;7.00;1.20;;;;;;;22.06;41.82;101054.22;15550341;28;20042;-51
2023/07/18 19:50:19;;;;;;;4.07;1.27;;;;;;;21.71;44.01;101057.84;15503901;28;20496;-50
2023/07/18 19:57:52;;;;;;;7.93;1.50;;;;;;;21.53;43.84;101045.59;15505902;28;20093;-50
2023/07/18 20:05:26;;;;;;;4.20;1.83;;;;;;;21.14;44.22;101046.97;15530561;28;20427;-51
2023/07/18 20:12:59;;;;;;;3.85;1.33;;;;;;;20.80;45.34;101037.69;15491008;28;20061;-52
2023/07/18 20:20:33;;;;;;;3.58;1.20;;;;;;;20.71;45.59;101048.31;15488651;28;20054;-55
2023/07/18 20:28:06;;;;;;;4.40;1.40;;;;;;;20.44;46.25;101047.66;15480399;28;20525;-50
2023/07/18 20:35:40;;;;;;;;;;;;;;;19.95;48.39;101046.09;15489734;28;20069;-55
2023/07/18 20:43:13;;;;;;;6.30;2.03;;;;;;;19.90;48.18;101043.34;15498603;28;19929;-52
2023/07/18 20:50:47;;;;;;;;;;;;;;;19.78;48.15;101043.59;15472027;28;20121;-50
2023/07/18 20:58:20;;;;;;;5.40;1.30;;;;;;;19.59;48.37;101035.00;15522484;28;19921;-54
2023/07/18 21:05:54;;;;;;;;;;;;;;;19.20;50.61;101039.88;15525229;28;20049;-51
2023/07/18 21:13:27;;;;;;;3.67;1.83;;;;;;;18.78;50.82;101035.16;15516884;28;20317;-53
2023/07/18 21:21:01;;;;;;;4.45;1.98;;;;;;;18.98;50.26;101039.16;15524871;28;20045;-51
2023/07/18 21:28:34;;;;;;;3.90;1.48;;;;;;;18.78;50.65;101035.16;15538146;28;20062;-52
2023/07/18 21:36:09;;;;;;;9.05;1.80;;;;;;;18.55;51.41;101032.72;15537295;28;20081;-53
2023/07/18 21:43:41;;;;;;;6.13;1.50;;;;;;;18.43;51.64;101040.22;15506568;28;20043;-54
2023/07/18 21:51:16;;;;;;;8.57;1.92;;;;;;;18.11;52.56;101035.50;15472075;28;20050;-52
2023/07/18 21:58:48;;;;;;;4.03;1.70;;;;;;;17.92;52.98;101024.13;15505490;28;20057;-53
2023/07/18 22:06:23;;;;;;;9.30;1.60;;;;;;;18.11;52.27;101027.34;15540209;28;20061;-51
2023/07/18 22:14:14;;;;;;;9.98;1.80;;;;;;;17.77;52.87;101016.63;15515222;28;20113;-53
2023/07/18 22:21:49;;;;;;;5.47;1.80;;;;;;;17.74;53.11;101008.13;15505907;28;20042;-48
2023/07/18 22:29:21;;;;;;;4.40;2.17;;;;;;;17.59;54.62;101006.00;15549610;28;20162;-48
2023/07/18 22:36:56;;;;;;;7.55;2.30;;;;;;;17.15;56.46;101003.19;15547300;28;20049;-51
2023/07/18 22:44:29;;;;;;;3.28;1.83;;;;;;;17.58;54.02;101007.91;15527932;28;20042;-51
2023/07/18 22:52:04;;;;;;;5.03;2.35;;;;;;;17.25;55.62;100987.09;15553762;28;20532;-53
2023/07/18 22:59:36;;;;;;;8.50;2.05;;;;;;;17.17;55.99;100990.22;15494003;28;20140;-49
2023/07/18 23:07:11;;;;;;;6.17;2.70;;;;;;;17.10;56.96;100994.97;15497423;28;20046;-50
2023/07/18 23:14:43;;;;;;;5.75;2.72;;;;;;;17.20;57.40;100988.88;15511055;28;20300;-52
2023/07/18 23:22:18;;;;;;;4.63;1.88;;;;;;;16.60;56.78;100987.63;15554310;28;20046;-48
2023/07/18 23:29:50;;;;;;;4.30;1.73;;;;;;;16.97;55.38;100968.16;15526799;28;20132;-53
2023/07/18 23:37:24;;;;;;;6.82;1.77;;;;;;;16.83;55.45;100964.97;15532206;28;20156;-50
2023/07/18 23:44:58;;;;;;;4.63;2.10;;;;;;;16.66;56.57;100958.69;15499130;28;20122;-50
2023/07/18 23:52:32;;;;;;;5.25;2.00;;;;;;;16.51;57.18;100954.66;15490598;28;20049;-52
